Time;durP1;ratioP1;P1;durP2;ratioP2;P2;SDS_P1;SDS_P2;PMS_P1;PMS_P2;Temp;Humidity;BMP_temperature;BMP_pressure;BME280_temperature;BME280_humidity;BME280_pressure;Samples;Min_cycle;Max_cycle;Signal;HPM_P1;HPM_P2
2023/09/24 00:01:27;;;;;;;10.77;8.30;;;;;;;;;;4972961;28;20475;-81
2023/09/24 00:03:54;;;;;;;12.60;8.53;;;;;;;;;;4970610;28;20487;-80
2023/09/24 00:06:21;;;;;;;12.00;8.87;;;;;;;;;;4985672;28;20453;-80
2023/09/24 00:08:48;;;;;;;11.33;8.30;;;;;;;;;;4983715;28;20448;-81
2023/09/24 00:11:16;;;;;;;13.00;7.80;;;;;;;;;;4974513;28;20499;-80
2023/09/24 00:13:43;;;;;;;8.93;8.07;;;;;;;;;;4971502;28;20459;-81
2023/09/24 00:16:10;;;;;;;8.57;7.67;;;;;;;;;;4975696;28;20503;-80
2023/09/24 00:18:39;;;;;;;11.60;7.93;;;;;;;;;;4960225;28;20475;-80
2023/09/24 00:21:06;;;;;;;8.83;7.90;;;;;;;;;;4971332;28;20967;-81
2023/09/24 00:23:32;;;;;;;9.13;6.90;;;;;;;;;;4980359;28;20487;-81
2023/09/24 00:26:00;;;;;;;8.93;8.00;;;;;;;;;;5022667;28;20437;-80
2023/09/24 00:28:26;;;;;;;9.20;8.37;;;;;;;;;;5039074;28;20463;-80
2023/09/24 00:30:55;;;;;;;10.23;7.27;;;;;;;;;;4954694;28;20446;-80
2023/09/24 00:33:21;;;;;;;8.90;8.00;;;;;;;;;;4974464;28;20475;-80
2023/09/24 00:35:49;;;;;;;7.63;6.80;;;;;;;;;;4971661;28;20417;-80
2023/09/24 00:38:16;;;;;;;8.00;6.53;;;;;;;;;;4973858;28;20988;-82
2023/09/24 00:40:43;;;;;;;11.10;7.03;;;;;;;;;;4959885;28;20452;-80
2023/09/24 00:43:24;;;;;;;8.90;7.50;;;;;;;;;;4954737;28;20468;-80
2023/09/24 00:45:51;;;;;;;8.50;6.83;;;;;;;;;;4968154;28;20426;-80
2023/09/24 00:48:18;;;;;;;7.63;6.33;;;;;;;;;;4954910;28;20451;-80
2023/09/24 00:50:44;;;;;;;8.70;6.70;;;;;;;;;;4975874;28;20821;-81
2023/09/24 00:53:12;;;;;;;8.87;6.90;;;;;;;;;;4973784;28;20463;-80
2023/09/24 00:55:40;;;;;;;11.00;7.93;;;;;;;;;;4975207;28;20455;-80
2023/09/24 00:58:07;;;;;;;13.20;8.33;;;;;;;;;;4972314;28;20447;-81
2023/09/24 01:00:34;;;;;;;7.47;6.57;;;;;;;;;;4953501;28;20435;-81
2023/09/24 01:03:01;;;;;;;11.37;7.63;;;;;;;;;;4970154;28;21018;-80
2023/09/24 01:05:28;;;;;;;7.03;6.20;;;;;;;;;;4971736;28;20506;-80
2023/09/24 01:07:54;;;;;;;7.17;6.30;;;;;;;;;;4977185;28;20476;-81
2023/09/24 01:10:25;;;;;;;6.00;5.47;;;;;;;;;;4960981;28;20452;-80
2023/09/24 01:12:55;;;;;;;10.93;6.97;;;;;;;;;;4973067;28;20820;-81
2023/09/24 01:15:23;;;;;;;9.03;5.77;;;;;;;;;;4956674;28;21034;-81
2023/09/24 01:17:52;;;;;;;9.67;7.43;;;;;;;;;;4945840;28;20464;-80
2023/09/24 01:20:21;;;;;;;7.33;6.67;;;;;;;;;;5007735;28;21016;-80
2023/09/24 01:22:50;;;;;;;6.50;5.90;;;;;;;;;;5058373;28;20471;-81
2023/09/24 01:25:18;;;;;;;7.50;6.33;;;;;;;;;;5058794;28;20584;-81
2023/09/24 01:27:44;;;;;;;8.07;6.20;;;;;;;;;;5058107;28;20533;-81
2023/09/24 01:30:12;;;;;;;7.53;6.73;;;;;;;;;;4984638;28;20508;-81
2023/09/24 01:32:40;;;;;;;6.80;5.77;;;;;;;;;;4974928;28;20554;-81
2023/09/24 01:35:08;;;;;;;7.50;5.13;;;;;;;;;;4976635;28;20468;-81
2023/09/24 01:37:34;;;;;;;11.20;5.63;;;;;;;;;;4969206;28;20861;-81
2023/09/24 01:40:15;;;;;;;7.67;5.80;;;;;;;;;;4976197;28;20455;-80
2023/09/24 01:42:42;;;;;;;6.97;6.37;;;;;;;;;;4977452;28;20485;-80
2023/09/24 01:45:10;;;;;;;8.10;6.20;;;;;;;;;;4955117;28;20490;-81
2023/09/24 01:47:37;;;;;;;7.50;6.67;;;;;;;;;;4975755;28;20475;-81
2023/09/24 01:50:08;;;;;;;9.40;6.53;;;;;;;;;;4978462;28;20492;-81
2023/09/24 01:52:35;;;;;;;11.00;6.57;;;;;;;;;;4975806;28;20501;-81
2023/09/24 01:55:01;;;;;;;6.73;5.60;;;;;;;;;;4975830;28;20478;-80
2023/09/24 01:57:30;;;;;;;6.33;5.73;;;;;;;;;;4956495;28;20446;-81
2023/09/24 02:00:04;;;;;;;6.80;6.10;;;;;;;;;;4974213;28;20447;-80
2023/09/24 02:02:33;;;;;;;7.53;6.73;;;;;;;;;;4975570;28;20478;-81
2023/09/24 02:05:00;;;;;;;8.20;6.97;;;;;;;;;;4974084;28;20498;-80
2023/09/24 02:07:27;;;;;;;8.37;6.97;;;;;;;;;;4973695;28;20468;-81
2023/09/24 02:09:53;;;;;;;7.87;7.07;;;;;;;;;;4975634;28;20455;-81
2023/09/24 02:12:19;;;;;;;8.17;6.60;;;;;;;;;;4977530;28;20861;-81
2023/09/24 02:14:47;;;;;;;7.67;6.87;;;;;;;;;;4975449;28;20466;-81
2023/09/24 02:17:13;;;;;;;8.77;6.33;;;;;;;;;;4975364;28;20483;-81
2023/09/24 02:19:44;;;;;;;6.90;6.30;;;;;;;;;;4989452;28;20450;-81
2023/09/24 02:22:11;;;;;;;7.70;5.80;;;;;;;;;;4975480;28;20571;-81
2023/09/24 02:24:40;;;;;;;10.23;7.10;;;;;;;;;;4961414;28;20978;-81
2023/09/24 02:27:07;;;;;;;8.90;6.70;;;;;;;;;;4942143;28;20471;-81
2023/09/24 02:29:33;;;;;;;7.43;5.63;;;;;;;;;;4973541;28;20451;-81
2023/09/24 02:32:01;;;;;;;8.83;7.90;;;;;;;;;;4973221;28;20472;-81
2023/09/24 02:34:29;;;;;;;7.33;6.60;;;;;;;;;;4974593;28;20466;-81
2023/09/24 02:36:56;;;;;;;8.23;6.60;;;;;;;;;;5065257;28;20471;-81
2023/09/24 02:39:23;;;;;;;7.33;6.63;;;;;;;;;;5077509;28;20524;-81
2023/09/24 02:41:50;;;;;;;8.33;7.20;;;;;;;;;;5077450;28;20524;-81
2023/09/24 02:44:17;;;;;;;9.23;6.63;;;;;;;;;;5078336;28;20478;-81
2023/09/24 02:46:44;;;;;;;6.83;6.13;;;;;;;;;;4980514;28;20471;-81
2023/09/24 02:49:14;;;;;;;7.40;6.70;;;;;;;;;;4974157;28;20865;-81
2023/09/24 02:51:40;;;;;;;6.50;5.67;;;;;;;;;;4975770;28;20825;-81
2023/09/24 02:54:08;;;;;;;7.00;5.90;;;;;;;;;;4975728;28;20471;-81
2023/09/24 02:56:34;;;;;;;6.47;5.90;;;;;;;;;;4975902;28;20471;-81
2023/09/24 02:59:00;;;;;;;6.17;5.57;;;;;;;;;;4958728;28;20503;-81
2023/09/24 03:01:27;;;;;;;11.07;5.83;;;;;;;;;;4957983;28;20521;-81
2023/09/24 03:03:53;;;;;;;7.10;5.60;;;;;;;;;;4975800;28;20482;-81
2023/09/24 03:06:21;;;;;;;8.50;6.37;;;;;;;;;;4973764;28;20478;-81
2023/09/24 03:08:49;;;;;;;6.53;5.90;;;;;;;;;;4976171;28;20466;-81
2023/09/24 03:11:15;;;;;;;7.17;5.67;;;;;;;;;;4973113;28;20521;-81
2023/09/24 03:13:42;;;;;;;6.87;5.67;;;;;;;;;;4973295;28;20476;-81
2023/09/24 03:16:07;;;;;;;8.63;6.50;;;;;;;;;;4954707;28;20474;-81
2023/09/24 03:18:34;;;;;;;9.30;5.70;;;;;;;;;;4939690;29;20472;-81
2023/09/24 03:21:03;;;;;;;7.63;6.13;;;;;;;;;;4960113;28;20231;-81
2023/09/24 03:23:31;;;;;;;7.90;6.63;;;;;;;;;;4977566;28;20472;-81
2023/09/24 03:25:58;;;;;;;8.47;6.67;;;;;;;;;;4972685;28;20852;-81
2023/09/24 03:28:24;;;;;;;8.53;7.37;;;;;;;;;;4973124;28;20450;-81
2023/09/24 03:30:51;;;;;;;6.90;6.00;;;;;;;;;;4974189;28;20471;-81
2023/09/24 03:33:18;;;;;;;7.20;6.50;;;;;;;;;;4974292;28;20474;-82
2023/09/24 03:35:45;;;;;;;6.70;6.10;;;;;;;;;;4971728;28;20448;-81
2023/09/24 03:38:12;;;;;;;10.37;7.07;;;;;;;;;;4954401;28;20448;-81
2023/09/24 03:40:40;;;;;;;14.73;6.80;;;;;;;;;;4955185;28;20455;-81
2023/09/24 03:43:06;;;;;;;7.93;7.13;;;;;;;;;;4974985;28;20447;-81
2023/09/24 03:45:33;;;;;;;8.37;7.20;;;;;;;;;;4960175;28;20523;-81
2023/09/24 03:47:59;;;;;;;12.03;9.00;;;;;;;;;;4959744;28;20475;-81
2023/09/24 03:50:26;;;;;;;10.03;8.60;;;;;;;;;;4943886;28;20495;-81
2023/09/24 03:52:53;;;;;;;9.50;8.10;;;;;;;;;;4976357;28;20471;-80
2023/09/24 03:55:20;;;;;;;11.50;9.00;;;;;;;;;;4972179;28;20444;-81
2023/09/24 03:57:48;;;;;;;12.10;10.17;;;;;;;;;;4973837;28;20475;-81
2023/09/24 04:00:15;;;;;;;17.40;11.37;;;;;;;;;;4972544;28;20443;-81
2023/09/24 04:02:43;;;;;;;14.73;11.23;;;;;;;;;;4971996;28;20475;-80
2023/09/24 04:05:14;;;;;;;17.57;11.80;;;;;;;;;;4954360;28;20507;-81
2023/09/24 04:07:40;;;;;;;15.70;11.67;;;;;;;;;;4971789;28;20467;-81
2023/09/24 04:10:07;;;;;;;15.73;11.10;;;;;;;;;;4974977;28;20563;-81
2023/09/24 04:12:34;;;;;;;17.17;12.53;;;;;;;;;;4971789;28;20472;-81
2023/09/24 04:15:03;;;;;;;16.50;11.50;;;;;;;;;;5028816;28;20929;-81
2023/09/24 04:17:29;;;;;;;14.13;11.87;;;;;;;;;;5036059;28;20468;-81
2023/09/24 04:19:57;;;;;;;15.63;10.40;;;;;;;;;;4974232;28;20462;-81
2023/09/24 04:22:24;;;;;;;13.53;11.87;;;;;;;;;;4973466;28;20450;-81
2023/09/24 04:24:51;;;;;;;14.87;10.40;;;;;;;;;;4971795;28;20501;-81
2023/09/24 04:27:17;;;;;;;14.07;11.43;;;;;;;;;;4954935;28;20475;-81
2023/09/24 04:29:44;;;;;;;13.00;10.77;;;;;;;;;;4971544;28;20444;-81
2023/09/24 04:32:12;;;;;;;14.17;10.70;;;;;;;;;;4973710;28;20525;-81
2023/09/24 04:34:39;;;;;;;12.20;10.53;;;;;;;;;;4971320;28;20487;-80
2023/09/24 04:37:05;;;;;;;11.80;10.47;;;;;;;;;;4971332;28;20479;-81
2023/09/24 04:39:32;;;;;;;14.50;10.57;;;;;;;;;;4955086;28;20456;-80
2023/09/24 04:42:00;;;;;;;14.40;10.63;;;;;;;;;;4955054;28;21032;-80
2023/09/24 04:44:26;;;;;;;13.53;11.10;;;;;;;;;;4965286;28;20472;-81
2023/09/24 04:46:54;;;;;;;15.63;11.27;;;;;;;;;;4955283;28;20472;-81
2023/09/24 04:49:22;;;;;;;15.77;11.27;;;;;;;;;;4946790;28;20475;-81
2023/09/24 04:51:50;;;;;;;40.50;14.80;;;;;;;;;;4971534;28;20470;-81
2023/09/24 04:54:16;;;;;;;28.60;13.27;;;;;;;;;;4976181;28;21029;-81
2023/09/24 04:56:44;;;;;;;38.20;11.73;;;;;;;;;;4980539;28;20477;-80
2023/09/24 04:59:12;;;;;;;56.67;14.30;;;;;;;;;;4976080;28;20443;-80
2023/09/24 05:01:38;;;;;;;32.60;11.60;;;;;;;;;;4975130;28;21068;-80
2023/09/24 05:04:05;;;;;;;40.93;12.80;;;;;;;;;;4942716;29;20530;-80
2023/09/24 05:06:33;;;;;;;35.37;10.40;;;;;;;;;;4956076;28;20483;-80
2023/09/24 05:09:00;;;;;;;33.47;10.20;;;;;;;;;;4967884;28;20510;-81
2023/09/24 05:11:26;;;;;;;44.57;11.07;;;;;;;;;;4957916;28;20490;-81
2023/09/24 05:13:56;;;;;;;37.10;10.37;;;;;;;;;;4975385;28;20466;-81
2023/09/24 05:16:22;;;;;;;27.80;9.37;;;;;;;;;;4974658;28;20483;-80
2023/09/24 05:18:49;;;;;;;9.97;8.17;;;;;;;;;;4975439;28;20436;-80
2023/09/24 05:21:17;;;;;;;18.77;9.33;;;;;;;;;;4957510;28;21062;-81
2023/09/24 05:23:45;;;;;;;31.37;9.60;;;;;;;;;;4977162;28;20996;-80
2023/09/24 05:26:13;;;;;;;20.53;9.00;;;;;;;;;;4973014;28;20886;-81
2023/09/24 05:28:39;;;;;;;11.73;9.43;;;;;;;;;;4976395;28;20497;-81
2023/09/24 05:31:08;;;;;;;12.50;8.77;;;;;;;;;;4968235;28;20464;-80
2023/09/24 05:33:34;;;;;;;17.57;8.77;;;;;;;;;;4968858;28;20868;-81
2023/09/24 05:36:03;;;;;;;20.40;9.80;;;;;;;;;;4956589;28;20520;-81
2023/09/24 05:38:30;;;;;;;8.40;6.97;;;;;;;;;;4978354;28;20567;-80
2023/09/24 05:40:58;;;;;;;9.60;7.37;;;;;;;;;;4974310;28;20471;-81
2023/09/24 05:43:24;;;;;;;14.43;9.00;;;;;;;;;;4973911;28;20455;-80
2023/09/24 05:46:01;;;;;;;16.20;8.97;;;;;;;;;;4967416;28;20485;-83
2023/09/24 05:48:27;;;;;;;37.27;9.40;;;;;;;;;;4988830;28;20498;-80
2023/09/24 05:50:54;;;;;;;11.90;8.50;;;;;;;;;;4973848;28;20952;-81
2023/09/24 05:53:20;;;;;;;23.60;7.40;;;;;;;;;;4974601;28;21053;-81
2023/09/24 05:55:53;;;;;;;12.37;7.07;;;;;;;;;;4975393;28;20847;-80
2023/09/24 05:58:21;;;;;;;15.10;6.97;;;;;;;;;;4974055;28;20959;-81
2023/09/24 06:00:48;;;;;;;16.13;7.57;;;;;;;;;;4973943;28;20443;-80
2023/09/24 06:03:15;;;;;;;15.40;7.27;;;;;;;;;;4978020;28;20471;-80
2023/09/24 06:05:41;;;;;;;17.93;7.00;;;;;;;;;;4975945;28;20578;-80
2023/09/24 06:08:08;;;;;;;20.97;8.17;;;;;;;;;;4974069;28;20814;-80
2023/09/24 06:10:34;;;;;;;22.97;7.60;;;;;;;;;;4956379;28;20471;-80
2023/09/24 06:13:01;;;;;;;26.00;8.53;;;;;;;;;;4956133;28;20455;-80
2023/09/24 06:15:29;;;;;;;45.43;9.63;;;;;;;;;;4960524;28;20480;-79
2023/09/24 06:17:55;;;;;;;16.57;7.63;;;;;;;;;;4954489;29;20993;-80
2023/09/24 06:20:22;;;;;;;16.37;8.40;;;;;;;;;;4956186;28;20472;-80
2023/09/24 06:22:53;;;;;;;14.47;8.57;;;;;;;;;;4959973;28;21027;-81
2023/09/24 06:25:20;;;;;;;24.47;8.83;;;;;;;;;;4966893;28;20486;-80
2023/09/24 06:27:46;;;;;;;27.50;10.00;;;;;;;;;;4973300;28;20471;-79
2023/09/24 06:30:13;;;;;;;12.60;8.07;;;;;;;;;;4970873;28;20848;-80
2023/09/24 06:32:41;;;;;;;11.20;8.80;;;;;;;;;;5022411;28;20487;-79
2023/09/24 06:35:08;;;;;;;11.57;8.37;;;;;;;;;;4956645;28;20502;-80
2023/09/24 06:37:35;;;;;;;18.80;9.70;;;;;;;;;;4971125;28;20912;-81
2023/09/24 06:40:01;;;;;;;22.00;9.93;;;;;;;;;;4974077;28;20447;-80
2023/09/24 06:42:28;;;;;;;25.90;9.70;;;;;;;;;;4973534;28;20471;-80
2023/09/24 06:44:54;;;;;;;14.13;9.10;;;;;;;;;;4977729;28;20472;-80
2023/09/24 06:47:21;;;;;;;19.90;9.30;;;;;;;;;;4955669;28;20497;-80
2023/09/24 06:49:50;;;;;;;22.90;10.60;;;;;;;;;;4973235;28;20800;-80
2023/09/24 06:52:16;;;;;;;14.53;8.67;;;;;;;;;;4972795;28;20525;-80
2023/09/24 06:54:43;;;;;;;13.17;9.77;;;;;;;;;;4975302;28;20984;-80
2023/09/24 06:57:10;;;;;;;10.87;8.60;;;;;;;;;;4977021;28;20478;-80
2023/09/24 06:59:36;;;;;;;25.33;10.17;;;;;;;;;;4957571;28;20467;-80
2023/09/24 07:02:03;;;;;;;16.30;9.87;;;;;;;;;;4975088;28;20463;-81
2023/09/24 07:04:32;;;;;;;15.73;10.20;;;;;;;;;;4964049;28;20475;-80
2023/09/24 07:06:59;;;;;;;13.30;9.50;;;;;;;;;;4974724;28;20850;-80
2023/09/24 07:09:26;;;;;;;14.80;10.00;;;;;;;;;;4977397;28;20452;-79
2023/09/24 07:11:52;;;;;;;13.47;9.70;;;;;;;;;;4972522;28;21043;-79
2023/09/24 07:14:19;;;;;;;17.10;11.10;;;;;;;;;;4973843;28;20467;-82
2023/09/24 07:16:46;;;;;;;19.40;10.80;;;;;;;;;;4976182;28;20476;-80
2023/09/24 07:19:12;;;;;;;23.90;10.70;;;;;;;;;;4972615;28;20434;-80
2023/09/24 07:21:39;;;;;;;14.80;9.33;;;;;;;;;;4960467;28;20480;-80
2023/09/24 07:24:07;;;;;;;15.40;10.73;;;;;;;;;;4954371;28;20467;-80
2023/09/24 07:26:34;;;;;;;16.20;11.57;;;;;;;;;;4953456;28;20481;-83
2023/09/24 07:29:00;;;;;;;14.60;10.43;;;;;;;;;;4956196;28;20451;-82
2023/09/24 07:31:26;;;;;;;18.93;12.07;;;;;;;;;;4975256;28;20475;-81
2023/09/24 07:34:05;;;;;;;21.83;12.50;;;;;;;;;;5158847;27;20575;-80
2023/09/24 07:36:32;;;;;;;20.47;13.13;;;;;;;;;;5081933;28;21042;-80
2023/09/24 07:38:58;;;;;;;27.80;14.83;;;;;;;;;;5072155;28;20435;-80
2023/09/24 07:41:25;;;;;;;24.10;14.90;;;;;;;;;;5078025;28;20999;-81
2023/09/24 07:43:53;;;;;;;26.40;15.47;;;;;;;;;;5080844;28;20459;-80
2023/09/24 07:46:20;;;;;;;25.33;14.97;;;;;;;;;;5077698;28;20497;-80
2023/09/24 07:48:48;;;;;;;26.63;16.20;;;;;;;;;;5091542;28;20934;-80
2023/09/24 07:51:16;;;;;;;28.20;15.90;;;;;;;;;;5089989;28;20445;-83
2023/09/24 07:53:43;;;;;;;28.80;16.70;;;;;;;;;;5081733;28;20992;-80
2023/09/24 07:56:10;;;;;;;32.43;15.93;;;;;;;;;;5076119;28;20924;-79
2023/09/24 07:58:37;;;;;;;26.83;14.50;;;;;;;;;;5050384;28;20443;-81
2023/09/24 08:01:04;;;;;;;29.10;16.30;;;;;;;;;;5050198;28;20466;-80
2023/09/24 08:03:31;;;;;;;27.50;15.90;;;;;;;;;;5050980;28;20494;-80
2023/09/24 08:05:58;;;;;;;28.90;17.53;;;;;;;;;;5049013;28;20468;-80
2023/09/24 08:08:27;;;;;;;31.57;18.27;;;;;;;;;;5050317;28;20490;-81
2023/09/24 08:10:53;;;;;;;27.90;17.60;;;;;;;;;;5052301;28;20438;-80
2023/09/24 08:13:20;;;;;;;30.47;18.30;;;;;;;;;;5050310;28;20985;-79
2023/09/24 08:15:46;;;;;;;28.20;17.93;;;;;;;;;;5049699;28;20857;-79
2023/09/24 08:18:13;;;;;;;30.07;16.67;;;;;;;;;;5050321;28;20940;-80
2023/09/24 08:20:39;;;;;;;28.43;17.57;;;;;;;;;;5048567;28;20542;-80
2023/09/24 08:23:06;;;;;;;31.50;18.43;;;;;;;;;;5050570;28;20440;-79
2023/09/24 08:25:35;;;;;;;28.60;17.23;;;;;;;;;;5049309;28;20444;-82
2023/09/24 08:28:02;;;;;;;31.70;19.17;;;;;;;;;;5050327;28;20448;-81
2023/09/24 08:30:29;;;;;;;30.53;18.63;;;;;;;;;;5050953;28;20473;-80
2023/09/24 08:32:59;;;;;;;25.10;16.97;;;;;;;;;;5049966;28;20479;-80
2023/09/24 08:35:26;;;;;;;29.23;16.80;;;;;;;;;;5051451;28;20948;-81
2023/09/24 08:37:53;;;;;;;32.00;19.43;;;;;;;;;;5048537;28;20453;-80
2023/09/24 08:40:19;;;;;;;25.33;17.77;;;;;;;;;;5050700;28;21015;-80
2023/09/24 08:42:48;;;;;;;31.40;20.40;;;;;;;;;;5069683;28;20450;-80
2023/09/24 08:45:15;;;;;;;30.40;19.27;;;;;;;;;;5059015;28;20467;-80
2023/09/24 08:47:43;;;;;;;29.67;19.47;;;;;;;;;;5039800;28;20497;-80
2023/09/24 08:50:10;;;;;;;32.00;20.40;;;;;;;;;;5038803;28;20443;-81
2023/09/24 08:52:37;;;;;;;38.97;21.33;;;;;;;;;;5037400;28;20477;-83
2023/09/24 08:55:05;;;;;;;31.87;21.20;;;;;;;;;;5035905;28;20990;-80
2023/09/24 08:57:32;;;;;;;39.63;24.37;;;;;;;;;;5035470;28;20464;-82
2023/09/24 08:59:59;;;;;;;31.43;22.00;;;;;;;;;;5039364;28;20428;-80
2023/09/24 09:02:26;;;;;;;34.63;22.10;;;;;;;;;;5034202;28;20579;-81
2023/09/24 09:04:55;;;;;;;32.30;22.57;;;;;;;;;;5035914;28;20968;-82
2023/09/24 09:07:21;;;;;;;32.30;21.33;;;;;;;;;;5046343;28;20450;-81
2023/09/24 09:09:55;;;;;;;31.80;21.73;;;;;;;;;;5055485;28;20418;-80
2023/09/24 09:12:22;;;;;;;31.87;22.10;;;;;;;;;;5055552;28;21011;-81
2023/09/24 09:14:48;;;;;;;29.77;21.20;;;;;;;;;;5054671;28;20481;-81
2023/09/24 09:17:16;;;;;;;28.53;21.00;;;;;;;;;;5055652;28;20449;-81
2023/09/24 09:19:52;;;;;;;27.50;20.63;;;;;;;;;;5056393;28;20453;-81
2023/09/24 09:22:19;;;;;;;29.00;20.20;;;;;;;;;;5055270;28;20480;-80
2023/09/24 09:24:46;;;;;;;26.67;19.03;;;;;;;;;;5055590;28;20437;-81
2023/09/24 09:27:13;;;;;;;29.03;19.70;;;;;;;;;;5054402;28;20969;-81
2023/09/24 09:29:39;;;;;;;25.77;19.73;;;;;;;;;;5055926;28;20436;-80
2023/09/24 09:32:06;;;;;;;25.20;18.37;;;;;;;;;;5054036;28;20472;-81
2023/09/24 09:34:34;;;;;;;29.10;19.83;;;;;;;;;;5055377;28;20474;-81
2023/09/24 09:37:14;;;;;;;23.13;16.40;;;;;;;;;;5055569;28;20514;-82
2023/09/24 09:39:43;;;;;;;26.97;18.90;;;;;;;;;;5055626;28;20798;-81
2023/09/24 09:42:11;;;;;;;22.00;15.63;;;;;;;;;;5055076;28;20490;-82
2023/09/24 09:44:38;;;;;;;18.53;15.10;;;;;;;;;;5055121;28;20973;-82
2023/09/24 09:47:07;;;;;;;18.60;14.30;;;;;;;;;;5054088;28;20430;-81
2023/09/24 09:49:37;;;;;;;16.63;12.90;;;;;;;;;;5054821;28;20447;-81
2023/09/24 09:52:05;;;;;;;21.73;12.50;;;;;;;;;;5034621;28;20522;-82
2023/09/24 09:54:35;;;;;;;14.67;12.00;;;;;;;;;;5034435;28;20491;-82
2023/09/24 09:57:03;;;;;;;16.20;12.97;;;;;;;;;;5033744;28;20468;-80
2023/09/24 09:59:29;;;;;;;14.33;11.07;;;;;;;;;;5033492;28;20445;-81
2023/09/24 10:01:56;;;;;;;16.00;11.50;;;;;;;;;;5037714;28;20467;-81
2023/09/24 10:04:22;;;;;;;15.53;11.23;;;;;;;;;;5056456;28;20471;-80
2023/09/24 10:06:50;;;;;;;11.67;9.27;;;;;;;;;;5054311;28;20467;-81
2023/09/24 10:09:39;;;;;;;13.67;9.87;;;;;;;;;;5054982;28;20443;-81
2023/09/24 10:12:07;;;;;;;16.53;9.60;;;;;;;;;;5062588;28;20471;-81
2023/09/24 10:14:35;;;;;;;13.30;9.80;;;;;;;;;;5073588;28;20483;-82
2023/09/24 10:17:20;;;;;;;9.47;8.47;;;;;;;;;;5043623;28;20811;-81
2023/09/24 10:19:48;;;;;;;12.13;9.50;;;;;;;;;;5024633;28;20426;-81
2023/09/24 10:22:25;;;;;;;9.80;8.77;;;;;;;;;;5028083;28;20476;-81
2023/09/24 10:24:52;;;;;;;10.47;8.47;;;;;;;;;;5034566;28;20464;-81
2023/09/24 10:27:24;;;;;;;10.50;7.57;;;;;;;;;;5033691;28;20448;-81
2023/09/24 10:30:01;;;;;;;13.83;7.97;;;;;;;;;;5034646;28;20810;-81
2023/09/24 10:32:29;;;;;;;9.30;6.70;;;;;;;;;;5034138;28;20464;-81
2023/09/24 10:35:09;;;;;;;8.10;6.90;;;;;;;;;;5034957;28;20464;-82
2023/09/24 10:37:39;;;;;;;10.90;8.13;;;;;;;;;;5035849;28;20477;-81
2023/09/24 10:40:09;;;;;;;7.20;5.77;;;;;;;;;;5041138;28;20452;-81
2023/09/24 10:42:37;;;;;;;10.13;5.50;;;;;;;;;;5054582;28;20503;-81
2023/09/24 10:45:22;;;;;;;7.93;6.33;;;;;;;;;;5056163;28;20870;-82
2023/09/24 10:47:49;;;;;;;6.93;6.00;;;;;;;;;;5055492;28;20475;-81
2023/09/24 10:50:16;;;;;;;12.83;8.10;;;;;;;;;;5057503;28;20440;-81
2023/09/24 10:52:51;;;;;;;9.90;5.93;;;;;;;;;;5034401;28;20909;-81
2023/09/24 10:55:18;;;;;;;6.97;5.90;;;;;;;;;;5035309;28;20456;-81
2023/09/24 10:57:50;;;;;;;7.90;6.70;;;;;;;;;;5034987;28;20477;-79
2023/09/24 11:00:16;;;;;;;8.60;6.13;;;;;;;;;;5035017;28;20421;-79
2023/09/24 11:02:43;;;;;;;11.23;7.30;;;;;;;;;;5035218;28;20856;-81
2023/09/24 11:05:10;;;;;;;10.20;6.93;;;;;;;;;;5036173;28;20460;-82
2023/09/24 11:07:37;;;;;;;7.43;6.10;;;;;;;;;;5032594;28;20465;-82
2023/09/24 11:10:06;;;;;;;10.10;7.60;;;;;;;;;;5034274;28;20447;-79
2023/09/24 11:12:32;;;;;;;8.70;6.23;;;;;;;;;;5033508;28;20473;-81
2023/09/24 11:14:59;;;;;;;9.10;5.77;;;;;;;;;;5033537;28;20484;-81
2023/09/24 11:17:25;;;;;;;10.00;5.63;;;;;;;;;;5035394;28;20472;-82
2023/09/24 11:19:52;;;;;;;7.50;6.13;;;;;;;;;;5035883;28;20962;-81
2023/09/24 11:22:19;;;;;;;6.80;5.20;;;;;;;;;;5035318;28;20472;-82
2023/09/24 11:24:45;;;;;;;8.23;5.10;;;;;;;;;;5033455;28;20461;-81
2023/09/24 11:27:13;;;;;;;9.57;5.17;;;;;;;;;;5033503;28;20468;-78
2023/09/24 11:29:40;;;;;;;7.40;4.60;;;;;;;;;;5034217;28;20791;-81
2023/09/24 11:32:06;;;;;;;5.03;3.50;;;;;;;;;;5034281;28;20492;-83
2023/09/24 11:34:33;;;;;;;8.70;3.80;;;;;;;;;;5034089;28;20484;-82
2023/09/24 11:37:05;;;;;;;6.17;3.60;;;;;;;;;;5033874;28;20473;-80
2023/09/24 11:39:42;;;;;;;3.50;2.50;;;;;;;;;;5035761;28;20425;-81
2023/09/24 11:42:09;;;;;;;4.53;2.40;;;;;;;;;;5046771;28;20467;-80
2023/09/24 11:44:46;;;;;;;6.53;2.67;;;;;;;;;;5054104;28;20463;-80
2023/09/24 11:47:13;;;;;;;4.87;2.50;;;;;;;;;;5046867;28;20467;-83
2023/09/24 11:49:39;;;;;;;4.50;3.07;;;;;;;;;;5053629;28;20436;-82
2023/09/24 11:52:07;;;;;;;3.43;2.37;;;;;;;;;;5053162;28;20483;-79
2023/09/24 11:54:34;;;;;;;4.90;2.50;;;;;;;;;;5054053;28;20487;-81
2023/09/24 11:57:00;;;;;;;5.37;2.47;;;;;;;;;;5043534;28;20476;-80
2023/09/24 11:59:30;;;;;;;3.93;2.40;;;;;;;;;;5036221;28;20440;-80
2023/09/24 12:01:59;;;;;;;5.50;2.27;;;;;;;;;;5035772;28;20482;-81
2023/09/24 12:04:25;;;;;;;5.73;2.00;;;;;;;;;;5036451;28;20465;-82
2023/09/24 12:06:52;;;;;;;4.63;2.10;;;;;;;;;;5035187;28;20465;-81
2023/09/24 12:09:18;;;;;;;3.33;2.60;;;;;;;;;;5029411;28;20450;-82
2023/09/24 12:11:44;;;;;;;2.13;1.70;;;;;;;;;;5016089;28;20468;-81
2023/09/24 12:14:11;;;;;;;5.67;2.43;;;;;;;;;;5015071;28;20485;-81
2023/09/24 12:16:37;;;;;;;21.37;3.40;;;;;;;;;;5015371;28;20850;-81
2023/09/24 12:19:05;;;;;;;7.80;2.80;;;;;;;;;;5027134;28;20452;-81
2023/09/24 12:21:32;;;;;;;6.70;2.70;;;;;;;;;;5038153;28;20519;-82
2023/09/24 12:23:58;;;;;;;3.67;2.17;;;;;;;;;;5038205;28;20514;-82
2023/09/24 12:26:26;;;;;;;4.50;1.93;;;;;;;;;;5037948;28;20475;-80
2023/09/24 12:28:52;;;;;;;5.33;2.20;;;;;;;;;;5036261;28;20440;-81
2023/09/24 12:31:19;;;;;;;9.40;2.10;;;;;;;;;;5036546;28;20476;-81
2023/09/24 12:33:46;;;;;;;4.60;2.17;;;;;;;;;;5036466;28;20522;-81
2023/09/24 12:36:15;;;;;;;2.63;1.83;;;;;;;;;;5035379;28;20479;-81
2023/09/24 12:38:42;;;;;;;3.00;1.80;;;;;;;;;;5036793;28;20469;-82
2023/09/24 12:41:10;;;;;;;3.50;2.13;;;;;;;;;;5034894;28;20503;-81
2023/09/24 12:43:36;;;;;;;5.73;2.70;;;;;;;;;;5036613;28;20456;-81
2023/09/24 12:46:06;;;;;;;4.60;2.70;;;;;;;;;;5036369;28;20464;-81
2023/09/24 12:48:35;;;;;;;2.93;1.83;;;;;;;;;;5036066;28;20821;-81
2023/09/24 12:51:02;;;;;;;5.97;2.67;;;;;;;;;;5036599;28;20808;-82
2023/09/24 12:53:31;;;;;;;3.93;2.47;;;;;;;;;;5038674;28;20465;-81
2023/09/24 12:55:57;;;;;;;4.73;2.43;;;;;;;;;;5036204;28;20456;-82
2023/09/24 12:58:25;;;;;;;7.43;2.30;;;;;;;;;;5036583;28;20817;-81
2023/09/24 13:00:51;;;;;;;3.20;2.00;;;;;;;;;;5036273;28;20536;-82
2023/09/24 13:03:18;;;;;;;4.13;2.23;;;;;;;;;;5036451;28;20827;-82
2023/09/24 13:05:47;;;;;;;4.57;2.30;;;;;;;;;;5036272;28;20467;-82
2023/09/24 13:08:13;;;;;;;3.53;1.97;;;;;;;;;;5037259;28;20440;-81
2023/09/24 13:10:41;;;;;;;5.50;1.97;;;;;;;;;;5034921;28;20441;-82
2023/09/24 13:13:07;;;;;;;2.80;1.87;;;;;;;;;;5036577;28;20961;-81
2023/09/24 13:15:35;;;;;;;2.90;1.60;;;;;;;;;;5035826;28;20472;-81
2023/09/24 13:18:01;;;;;;;4.73;2.10;;;;;;;;;;5037112;28;20432;-81
2023/09/24 13:20:27;;;;;;;4.03;2.17;;;;;;;;;;5036420;28;20456;-81
2023/09/24 13:22:55;;;;;;;3.20;1.90;;;;;;;;;;5047086;28;20460;-81
2023/09/24 13:25:21;;;;;;;3.47;2.20;;;;;;;;;;5056807;28;20440;-82
2023/09/24 13:27:49;;;;;;;3.33;1.67;;;;;;;;;;5055523;28;20483;-81
2023/09/24 13:30:15;;;;;;;3.60;2.40;;;;;;;;;;5055945;28;20443;-81
2023/09/24 13:32:42;;;;;;;3.93;2.10;;;;;;;;;;5055658;28;20476;-82
2023/09/24 13:35:09;;;;;;;4.17;2.17;;;;;;;;;;5056052;28;20857;-80
2023/09/24 13:37:37;;;;;;;2.57;1.80;;;;;;;;;;5056569;28;20795;-82
2023/09/24 13:40:04;;;;;;;8.47;3.33;;;;;;;;;;5055855;28;20451;-80
2023/09/24 13:42:31;;;;;;;7.00;2.73;;;;;;;;;;5029746;28;20466;-80
2023/09/24 13:44:58;;;;;;;2.87;2.10;;;;;;;;;;5056470;28;20460;-80
2023/09/24 13:47:25;;;;;;;3.43;2.23;;;;;;;;;;5046572;28;21005;-81
2023/09/24 13:49:51;;;;;;;3.90;2.30;;;;;;;;;;5035878;28;20452;-81
2023/09/24 13:52:18;;;;;;;5.63;3.00;;;;;;;;;;5035481;28;20480;-81
2023/09/24 13:54:44;;;;;;;6.87;2.43;;;;;;;;;;5035455;28;20481;-80
2023/09/24 13:57:11;;;;;;;2.23;2.03;;;;;;;;;;5035284;28;20476;-81
2023/09/24 13:59:37;;;;;;;4.97;2.17;;;;;;;;;;5035615;28;20444;-80
2023/09/24 14:02:05;;;;;;;6.20;2.50;;;;;;;;;;5035020;28;20879;-80
2023/09/24 14:04:32;;;;;;;4.27;2.10;;;;;;;;;;5035570;28;20472;-80
2023/09/24 14:06:58;;;;;;;4.63;2.30;;;;;;;;;;5035131;28;20472;-80
2023/09/24 14:12:21;;;;;;;3.60;2.50;;;;;;;;;;5048169;28;20470;-81
2023/09/24 14:14:48;;;;;;;5.43;2.47;;;;;;;;;;5055051;28;20490;-82
2023/09/24 14:17:16;;;;;;;2.43;2.23;;;;;;;;;;5053327;28;20459;-81
2023/09/24 14:19:42;;;;;;;4.00;2.50;;;;;;;;;;5055284;28;20447;-81
2023/09/24 14:22:08;;;;;;;5.23;2.47;;;;;;;;;;5054153;28;20468;-82
2023/09/24 14:24:35;;;;;;;6.30;2.50;;;;;;;;;;5054721;28;20467;-81
2023/09/24 14:27:02;;;;;;;4.47;2.37;;;;;;;;;;5054472;28;20471;-82
2023/09/24 14:29:29;;;;;;;3.70;2.13;;;;;;;;;;5054703;28;20447;-81
2023/09/24 14:31:55;;;;;;;3.60;1.80;;;;;;;;;;5051862;28;20482;-82
2023/09/24 14:34:23;;;;;;;9.47;2.23;;;;;;;;;;5054128;28;20488;-82
2023/09/24 14:36:50;;;;;;;3.27;2.37;;;;;;;;;;5042997;28;20829;-81
2023/09/24 14:39:17;;;;;;;5.03;2.43;;;;;;;;;;5034839;28;20443;-81